Time;durP1;ratioP1;P1;durP2;ratioP2;P2;SDS_P1;SDS_P2;PMS_P1;PMS_P2;Temp;Humidity;BMP_temperature;BMP_pressure;BME280_temperature;BME280_humidity;BME280_pressure;Samples;Min_cycle;Max_cycle;Signal;HPM_P1;HPM_P2
2020/12/28 00:02:17;;;;;;;60.92;21.70;;;;;;;-2.52;85.79;101197.89;1830343;78;21221;-79
2020/12/28 00:05:23;;;;;;;61.05;27.48;;;;;;;-2.53;85.74;101201.52;1827757;78;21674;-79
2020/12/28 00:08:29;;;;;;;46.68;21.20;;;;;;;-2.53;85.69;101197.50;1830003;78;21296;-78
2020/12/28 00:11:34;;;;;;;52.45;24.07;;;;;;;-2.54;85.62;101202.47;1827139;78;21728;-78
2020/12/28 00:14:41;;;;;;;59.38;20.57;;;;;;;-2.54;85.52;101213.63;1829793;78;21458;-79
2020/12/28 00:17:50;;;;;;;55.95;19.20;;;;;;;-2.54;85.44;101210.95;1827081;78;21281;-79
2020/12/28 00:20:56;;;;;;;44.55;20.65;;;;;;;-2.53;85.35;101208.69;1829658;78;21281;-79
2020/12/28 00:24:01;;;;;;;45.45;19.05;;;;;;;-2.52;85.19;101211.77;1826089;78;21287;-77
2020/12/28 00:27:07;;;;;;;56.23;20.17;;;;;;;-2.51;85.13;101203.64;1828059;78;21815;-76
2020/12/28 00:30:12;;;;;;;44.38;18.23;;;;;;;-2.47;84.95;101201.70;1825536;78;21339;-79
2020/12/28 00:33:18;;;;;;;44.45;14.75;;;;;;;-2.45;84.73;101207.37;1829190;78;21892;-79
2020/12/28 00:36:24;;;;;;;40.70;13.90;;;;;;;-2.43;84.50;101204.16;1825518;78;21275;-76
2020/12/28 00:39:30;;;;;;;51.23;18.52;;;;;;;-2.40;84.31;101201.80;1829496;78;21303;-76
2020/12/28 00:42:37;;;;;;;34.73;15.63;;;;;;;-2.39;84.09;101196.86;1827261;78;21209;-76
2020/12/28 00:45:43;;;;;;;39.10;13.40;;;;;;;-2.34;83.93;101194.36;1829699;78;21351;-79
2020/12/28 00:48:48;;;;;;;41.20;15.48;;;;;;;-2.32;83.70;101194.27;1827056;78;21208;-78
2020/12/28 00:51:53;;;;;;;31.82;15.08;;;;;;;-2.33;83.58;101184.03;1829698;78;21279;-78
2020/12/28 00:54:59;;;;;;;34.23;14.70;;;;;;;-2.32;83.32;101190.25;1825285;78;21241;-78
2020/12/28 00:58:06;;;;;;;43.20;17.50;;;;;;;-2.33;83.17;101179.14;1828193;78;21300;-78
2020/12/28 01:01:13;;;;;;;29.63;12.40;;;;;;;-2.34;82.95;101173.39;1828924;78;21859;-78
2020/12/28 01:04:18;;;;;;;25.70;12.18;;;;;;;-2.32;82.78;101177.72;1826212;78;21744;-78
2020/12/28 01:07:26;;;;;;;32.98;12.80;;;;;;;-2.31;82.50;101181.27;1829667;78;21724;-79
2020/12/28 01:10:35;;;;;;;28.27;12.13;;;;;;;-2.32;82.08;101179.06;1829408;78;21300;-79
2020/12/28 01:13:42;;;;;;;24.45;10.75;;;;;;;-2.33;81.79;101168.42;1826789;78;21323;-79
2020/12/28 01:16:52;;;;;;;24.05;9.75;;;;;;;-2.34;81.56;101166.69;1828171;78;22567;-79
2020/12/28 01:20:00;;;;;;;31.80;16.15;;;;;;;-2.35;81.47;101168.51;1828069;78;21704;-79
2020/12/28 01:23:09;;;;;;;25.10;11.83;;;;;;;-2.33;81.35;101157.23;1827050;78;21758;-78
2020/12/28 01:26:25;;;;;;;33.30;23.95;;;;;;;-2.28;81.14;101157.48;1829058;78;21315;-79
2020/12/28 01:29:31;;;;;;;31.52;19.87;;;;;;;-2.23;80.92;101143.39;1827114;78;21357;-79
2020/12/28 01:32:38;;;;;;;32.78;17.27;;;;;;;-2.23;80.43;101134.87;1829677;78;21835;-78
2020/12/28 01:35:51;;;;;;;23.67;15.20;;;;;;;-2.22;80.09;101121.00;1825501;78;21296;-78
2020/12/28 01:39:00;;;;;;;30.95;18.30;;;;;;;-2.23;79.84;101120.61;1829723;78;21281;-79
2020/12/28 01:42:07;;;;;;;40.50;29.20;;;;;;;-2.28;79.45;101118.63;1826172;78;21331;-79
2020/12/28 01:45:13;;;;;;;25.17;11.60;;;;;;;-2.32;79.22;101114.74;1828599;78;21158;-79
2020/12/28 01:48:21;;;;;;;38.95;31.30;;;;;;;-2.35;79.29;101110.89;1827319;78;21180;-78
2020/12/28 01:51:26;;;;;;;31.25;22.42;;;;;;;-2.34;79.35;101113.09;1829398;78;21149;-79
2020/12/28 01:54:32;;;;;;;50.48;40.55;;;;;;;-2.36;79.24;101109.61;1826526;78;21388;-78
2020/12/28 01:57:41;;;;;;;19.42;10.98;;;;;;;-2.40;79.22;101098.20;1828480;78;21209;-79
2020/12/28 02:00:49;;;;;;;25.75;19.73;;;;;;;-2.44;79.27;101097.94;1827064;78;21863;-79
2020/12/28 02:03:56;;;;;;;17.10;9.53;;;;;;;-2.47;79.29;101098.55;1827981;78;21205;-78
2020/12/28 02:07:04;;;;;;;17.60;11.93;;;;;;;-2.50;79.22;101087.50;1829583;78;21173;-78
2020/12/28 02:10:17;;;;;;;19.92;11.60;;;;;;;-2.54;79.12;101087.28;1826933;78;21229;-79
2020/12/28 02:13:24;;;;;;;34.58;23.45;;;;;;;-2.59;79.10;101079.91;1828048;78;21304;-78
2020/12/28 02:16:44;;;;;;;21.70;15.03;;;;;;;-2.62;79.23;101074.72;1826912;78;21740;-78
2020/12/28 02:19:52;;;;;;;28.32;20.10;;;;;;;-2.63;79.30;101070.31;1828138;78;21174;-78
2020/12/28 02:22:59;;;;;;;22.00;14.00;;;;;;;-2.66;79.37;101064.61;1826834;78;21784;-78
2020/12/28 02:26:05;;;;;;;24.87;18.60;;;;;;;-2.69;79.52;101058.05;1828371;78;21252;-78
2020/12/28 02:29:12;;;;;;;21.07;9.73;;;;;;;-2.68;79.60;101063.83;1827020;78;21161;-79
2020/12/28 02:32:17;;;;;;;24.52;20.10;;;;;;;-2.66;79.55;101058.39;1829601;78;21268;-79
2020/12/28 02:35:41;;;;;;;20.88;15.45;;;;;;;-2.64;79.43;101059.17;1825061;78;21355;-78
2020/12/28 02:38:48;;;;;;;20.35;13.78;;;;;;;-2.61;79.19;101049.66;1829366;78;21176;-78
2020/12/28 02:41:53;;;;;;;34.33;29.55;;;;;;;-2.60;79.18;101046.03;1826823;78;21200;-78
2020/12/28 02:45:18;;;;;;;18.07;12.10;;;;;;;-2.60;79.24;101040.67;1829070;78;21288;-78
2020/12/28 02:48:43;;;;;;;30.43;20.77;;;;;;;-2.61;79.27;101035.80;1826435;78;21248;-78
2020/12/28 02:52:00;;;;;;;29.37;21.70;;;;;;;-2.60;79.27;101037.52;1775641;78;21322;-78
2020/12/28 02:55:25;;;;;;;22.62;17.42;;;;;;;-2.57;79.18;101035.18;1826364;78;21351;-78
2020/12/28 02:58:46;;;;;;;24.20;14.20;;;;;;;-2.57;79.22;101031.16;1773437;81;21854;-78
2020/12/28 03:01:57;;;;;;;29.77;22.40;;;;;;;-2.55;79.22;101035.95;1776939;78;21851;-78
2020/12/28 03:05:21;;;;;;;36.77;30.60;;;;;;;-2.57;79.32;101029.34;1840954;78;21716;-78
2020/12/28 03:08:46;;;;;;;27.42;20.77;;;;;;;-2.56;79.40;101031.55;1844034;78;21220;-78
2020/12/28 03:12:09;;;;;;;25.32;19.10;;;;;;;-2.55;79.38;101034.63;1841165;78;21192;-78
2020/12/28 03:15:26;;;;;;;22.90;19.00;;;;;;;-2.52;79.39;101030.47;1843880;78;21316;-78
2020/12/28 03:18:51;;;;;;;23.22;17.05;;;;;;;-2.48;79.43;101029.38;1841254;78;21177;-78
2020/12/28 03:22:15;;;;;;;30.00;23.52;;;;;;;-2.43;79.54;101034.03;1844225;78;21291;-78
2020/12/28 03:25:40;;;;;;;29.42;24.32;;;;;;;-2.39;79.49;101027.58;1840302;78;21299;-79
2020/12/28 03:29:06;;;;;;;15.20;11.48;;;;;;;-2.32;79.54;101024.11;1842526;78;21322;-78
2020/12/28 03:32:30;;;;;;;14.93;9.13;;;;;;;-2.26;79.76;101021.58;1840999;78;21291;-79
2020/12/28 03:35:56;;;;;;;17.25;13.78;;;;;;;-2.24;79.83;101021.05;1842712;78;21315;-79
2020/12/28 03:39:18;;;;;;;24.82;19.15;;;;;;;-2.20;79.88;101022.64;1841444;78;21197;-78
2020/12/28 03:42:35;;;;;;;25.17;20.43;;;;;;;-2.12;79.52;101026.67;1844111;78;21771;-79
2020/12/28 03:45:59;;;;;;;21.80;15.18;;;;;;;-2.06;79.05;101020.98;1840763;78;21310;-78
2020/12/28 03:49:22;;;;;;;20.55;13.30;;;;;;;-1.97;78.68;101030.37;1842814;78;21263;-79
2020/12/28 03:52:45;;;;;;;17.70;14.55;;;;;;;-1.93;78.11;101022.57;1841493;78;21269;-78
2020/12/28 03:56:11;;;;;;;30.25;20.43;;;;;;;-1.88;77.79;101023.20;1843791;78;21319;-78
2020/12/28 03:59:34;;;;;;;15.08;10.53;;;;;;;-1.83;77.84;101013.57;1840933;78;21307;-77
2020/12/28 04:02:59;;;;;;;27.10;17.70;;;;;;;-1.78;77.51;101017.35;1842588;78;21207;-78
2020/12/28 04:06:22;;;;;;;16.77;12.23;;;;;;;-1.76;77.07;101006.92;1801274;79;21335;-78
2020/12/28 04:09:41;;;;;;;24.52;16.05;;;;;;;-1.73;76.81;101007.25;1778760;78;22476;-78
2020/12/28 04:12:58;;;;;;;11.50;8.50;;;;;;;-1.70;76.51;101007.06;1767493;78;21827;-79
2020/12/28 04:16:05;;;;;;;25.17;19.12;;;;;;;-1.67;76.32;101011.80;1801563;79;21312;-79
2020/12/28 04:19:11;;;;;;;20.08;13.18;;;;;;;-1.62;76.34;101016.92;1801192;79;21319;-79
2020/12/28 04:22:19;;;;;;;17.55;12.68;;;;;;;-1.58;76.15;101017.16;1801919;79;21344;-78
2020/12/28 04:25:26;;;;;;;20.23;16.65;;;;;;;-1.54;75.97;101022.75;1801893;79;21847;-79
2020/12/28 04:28:34;;;;;;;17.12;9.15;;;;;;;-1.54;75.60;101016.05;1801872;79;21300;-79
2020/12/28 04:31:42;;;;;;;57.55;47.95;;;;;;;-1.54;75.61;101020.08;1801974;79;21288;-79
2020/12/28 04:34:48;;;;;;;15.68;9.90;;;;;;;-1.51;75.72;101029.76;1800767;79;21324;-79
2020/12/28 04:37:53;;;;;;;22.37;17.23;;;;;;;-1.51;75.84;101028.41;1800395;79;21229;-79
2020/12/28 04:40:58;;;;;;;17.55;7.33;;;;;;;-1.50;75.67;101020.31;1801923;79;21221;-76
2020/12/28 04:44:04;;;;;;;22.48;14.85;;;;;;;-1.48;75.29;101010.34;1789824;79;21843;-77
2020/12/28 04:47:11;;;;;;;11.28;8.18;;;;;;;-1.47;75.05;101015.23;1801225;79;21295;-78
2020/12/28 04:50:16;;;;;;;24.43;17.15;;;;;;;-1.49;75.18;101009.96;1800841;79;21315;-78
2020/12/28 04:53:21;;;;;;;14.35;9.58;;;;;;;-1.49;75.37;101007.27;1801676;79;21284;-78
2020/12/28 04:56:29;;;;;;;17.15;12.37;;;;;;;-1.50;75.04;101002.00;1801720;79;21291;-78
2020/12/28 04:59:35;;;;;;;11.28;7.55;;;;;;;-1.55;75.11;101002.25;1800375;79;21325;-78
2020/12/28 05:02:40;;;;;;;13.25;7.60;;;;;;;-1.57;75.27;100991.58;1800447;79;21693;-78
2020/12/28 05:05:53;;;;;;;13.48;8.88;;;;;;;-1.58;75.24;101005.95;1810442;78;21198;-79
2020/12/28 05:08:59;;;;;;;10.50;7.85;;;;;;;-1.58;75.21;101009.11;1829533;78;21691;-78
2020/12/28 05:12:08;;;;;;;24.87;19.25;;;;;;;-1.57;74.95;101002.79;1826962;78;21201;-78
2020/12/28 05:15:17;;;;;;;14.20;7.45;;;;;;;-1.59;75.21;101000.67;1829660;78;21324;-78
2020/12/28 05:18:24;;;;;;;16.73;9.70;;;;;;;-1.60;75.32;101001.59;1825934;78;21205;-78
2020/12/28 05:21:33;;;;;;;21.80;16.95;;;;;;;-1.62;75.47;100992.78;1829680;78;21280;-78
2020/12/28 05:24:38;;;;;;;20.95;14.33;;;;;;;-1.62;75.61;100994.98;1826827;78;21705;-78
2020/12/28 05:27:46;;;;;;;22.13;15.32;;;;;;;-1.65;75.67;100994.27;1828888;78;21276;-78
2020/12/28 05:30:52;;;;;;;31.75;28.07;;;;;;;-1.68;75.70;100983.73;1827116;78;21720;-78
2020/12/28 05:33:57;;;;;;;12.90;8.53;;;;;;;-1.70;75.80;100998.54;1829626;78;21276;-79
2020/12/28 05:37:04;;;;;;;30.20;23.02;;;;;;;-1.68;75.95;100991.77;1826568;78;21351;-79
2020/12/28 05:40:09;;;;;;;14.18;8.80;;;;;;;-1.66;75.99;100987.18;1829639;78;22014;-79
2020/12/28 05:43:15;;;;;;;43.85;35.73;;;;;;;-1.64;75.83;100998.23;1826827;78;21173;-77
2020/12/28 05:46:33;;;;;;;28.23;21.50;;;;;;;-1.63;75.97;100992.39;1829505;78;21793;-79
2020/12/28 05:49:46;;;;;;;29.55;22.17;;;;;;;-1.62;75.89;100985.59;1817890;78;21266;-79
2020/12/28 05:53:00;;;;;;;31.90;26.97;;;;;;;-1.58;75.94;100994.36;1796929;80;21867;-79
2020/12/28 05:56:07;;;;;;;30.65;23.42;;;;;;;-1.56;75.93;100987.08;1792170;78;21162;-78
2020/12/28 05:59:13;;;;;;;30.95;22.32;;;;;;;-1.53;75.88;100980.21;1796341;80;21274;-78
2020/12/28 06:02:19;;;;;;;19.48;9.38;;;;;;;-1.48;75.71;100988.88;1794312;80;21898;-78
2020/12/28 06:05:28;;;;;;;24.90;21.52;;;;;;;-1.45;75.65;100998.11;1794786;80;21873;-78
2020/12/28 06:08:33;;;;;;;14.95;11.40;;;;;;;-1.45;75.39;101004.83;1791933;80;21344;-78
2020/12/28 06:11:40;;;;;;;23.07;18.05;;;;;;;-1.41;75.51;100998.34;1807069;78;21804;-78
2020/12/28 06:14:47;;;;;;;22.25;12.07;;;;;;;-1.39;75.60;100988.86;1816032;78;21320;-78
2020/12/28 06:17:53;;;;;;;22.48;17.07;;;;;;;-1.39;75.63;100992.41;1804049;78;21309;-79
2020/12/28 06:20:59;;;;;;;22.55;15.88;;;;;;;-1.40;75.46;100990.67;1794088;80;21899;-79
2020/12/28 06:24:06;;;;;;;36.98;28.62;;;;;;;-1.39;75.36;100995.09;1808860;78;21682;-78
2020/12/28 06:27:16;;;;;;;20.17;16.62;;;;;;;-1.38;75.21;100977.17;1810436;78;21307;-79
2020/12/28 06:30:26;;;;;;;27.62;22.15;;;;;;;-1.33;75.47;100981.33;1819929;78;21316;-78
2020/12/28 06:33:33;;;;;;;24.63;20.50;;;;;;;-1.29;75.28;100986.92;1800589;78;21299;-78
2020/12/28 06:36:38;;;;;;;17.70;12.43;;;;;;;-1.23;75.25;100986.19;1809937;78;21544;-79
2020/12/28 06:39:45;;;;;;;16.25;13.65;;;;;;;-1.16;75.05;100970.15;1803226;78;21173;-79
2020/12/28 06:42:50;;;;;;;18.23;14.68;;;;;;;-1.10;74.67;100987.25;1809849;78;21768;-78
2020/12/28 06:45:56;;;;;;;28.57;20.40;;;;;;;-1.07;74.88;100996.48;1761622;81;21335;-76
2020/12/28 06:49:11;;;;;;;19.53;15.67;;;;;;;-1.06;74.85;100999.08;1810205;78;21265;-78
2020/12/28 06:52:14;;;;;;;;;;;;;;;-1.05;75.09;100985.17;1813216;78;22348;-77
2020/12/28 06:55:19;;;;;;;16.60;11.60;;;;;;;-1.02;75.01;100979.64;1809011;78;20316;-79
2020/12/28 06:58:30;;;;;;;16.10;12.70;;;;;;;-0.99;74.94;100982.13;1800769;78;21303;-77
2020/12/28 07:01:35;;;;;;;14.83;11.93;;;;;;;-0.94;74.86;100961.28;1805509;78;21660;-78
2020/12/28 07:04:43;;;;;;;33.15;26.65;;;;;;;-0.88;74.78;100985.58;1807138;78;21327;-79
2020/12/28 07:07:50;;;;;;;19.55;17.48;;;;;;;-0.85;74.64;100992.09;1804731;78;21213;-79
2020/12/28 07:10:56;;;;;;;36.08;30.20;;;;;;;-0.80;74.40;100988.22;1801394;78;21328;-78
2020/12/28 07:14:06;;;;;;;22.90;17.65;;;;;;;-0.77;74.08;100995.22;1720181;81;21236;-78
2020/12/28 07:17:12;;;;;;;;;;;;;;;-0.76;74.34;100979.48;1785709;79;21889;-79
2020/12/28 07:20:21;;;;;;;25.70;22.93;;;;;;;-0.75;74.59;100983.03;1825795;78;20225;-79
2020/12/28 07:23:28;;;;;;;15.03;11.30;;;;;;;-0.75;74.80;100976.32;1808285;78;21838;-78
2020/12/28 07:26:35;;;;;;;24.15;18.75;;;;;;;-0.74;74.87;100975.39;1806321;77;21189;-78
2020/12/28 07:29:41;;;;;;;14.55;10.90;;;;;;;-0.75;74.94;100965.13;1810112;78;21130;-80
2020/12/28 07:32:48;;;;;;;30.95;25.72;;;;;;;-0.71;75.09;100957.73;1801684;78;21288;-80
2020/12/28 07:35:55;;;;;;;16.48;12.23;;;;;;;-0.65;75.21;100968.15;1811004;77;21303;-80
2020/12/28 07:39:01;;;;;;;18.40;15.28;;;;;;;-0.59;74.93;100959.23;1799948;78;21276;-79
2020/12/28 07:42:07;;;;;;;9.78;7.58;;;;;;;-0.55;74.51;100956.77;1807020;78;22014;-81
2020/12/28 07:45:15;;;;;;;17.55;14.33;;;;;;;-0.50;74.50;100943.06;1798874;78;21812;-79
2020/12/28 07:48:20;;;;;;;19.77;12.82;;;;;;;-0.46;74.50;100952.67;1806769;78;21318;-79
2020/12/28 07:51:28;;;;;;;15.08;9.83;;;;;;;-0.44;74.60;100966.88;1800904;78;21744;-80
2020/12/28 07:54:36;;;;;;;13.10;8.13;;;;;;;-0.40;74.85;100951.44;1809503;78;21312;-80
2020/12/28 07:58:02;;;;;;;22.95;19.92;;;;;;;-0.35;74.89;100954.23;1794899;78;21719;-80
2020/12/28 08:01:09;;;;;;;11.33;8.63;;;;;;;-0.28;74.82;100942.66;1812632;78;21294;-80
2020/12/28 08:04:15;;;;;;;17.62;14.10;;;;;;;-0.22;74.55;100941.42;1810815;78;21245;-78
2020/12/28 08:07:21;;;;;;;25.20;22.42;;;;;;;-0.21;74.58;100935.08;1800767;78;21270;-79
2020/12/28 08:10:30;;;;;;;20.90;18.48;;;;;;;-0.19;74.58;100914.33;1805888;78;21189;-83
2020/12/28 08:13:38;;;;;;;23.27;19.45;;;;;;;-0.14;74.52;100914.91;1801609;78;21209;-81
2020/12/28 08:16:45;;;;;;;15.23;12.68;;;;;;;-0.08;74.55;100915.91;1811853;78;21733;-78
2020/12/28 08:19:52;;;;;;;17.00;14.05;;;;;;;0.00;74.31;100908.25;1805175;78;21300;-80
2020/12/28 08:23:01;;;;;;;28.02;22.35;;;;;;;0.03;73.92;100902.66;1805464;78;21859;-78
2020/12/28 08:26:09;;;;;;;26.60;23.57;;;;;;;0.08;74.05;100912.65;1805019;78;21402;-79
2020/12/28 08:29:15;;;;;;;15.50;13.80;;;;;;;0.14;74.04;100906.02;1812802;78;21304;-78
2020/12/28 08:32:22;;;;;;;24.90;20.97;;;;;;;0.17;74.08;100916.11;1809369;78;21318;-78
2020/12/28 08:35:30;;;;;;;11.55;8.63;;;;;;;0.20;74.07;100908.34;1792552;78;21142;-78
2020/12/28 08:38:39;;;;;;;17.90;15.85;;;;;;;0.21;74.14;100896.62;1804905;78;21962;-78
2020/12/28 08:41:45;;;;;;;21.10;16.45;;;;;;;0.23;74.13;100878.54;1810164;78;21267;-78
2020/12/28 08:44:50;;;;;;;16.35;14.63;;;;;;;0.26;74.47;100877.02;1806985;78;21202;-78
2020/12/28 08:48:01;;;;;;;13.72;11.93;;;;;;;0.30;74.25;100870.97;1809661;78;21275;-79
2020/12/28 08:51:06;;;;;;;21.57;19.27;;;;;;;0.30;74.44;100873.17;1806285;78;21173;-79
2020/12/28 08:54:12;;;;;;;19.23;16.85;;;;;;;0.30;74.63;100864.23;1810667;78;21283;-79
2020/12/28 08:57:39;;;;;;;14.03;11.20;;;;;;;0.32;74.95;100863.64;1804742;78;21261;-79
2020/12/28 09:00:43;;;;;;;12.95;10.28;;;;;;;0.35;75.00;100858.08;1810568;78;21295;-79
2020/12/28 09:03:49;;;;;;;15.50;11.65;;;;;;;0.37;75.56;100846.72;1801328;78;21272;-79
2020/12/28 09:06:54;;;;;;;21.70;16.67;;;;;;;0.42;75.37;100839.21;1808021;78;21193;-80
2020/12/28 09:10:01;;;;;;;24.55;14.00;;;;;;;0.46;75.37;100830.84;1803876;78;21260;-79
2020/12/28 09:13:06;;;;;;;23.60;17.55;;;;;;;0.47;75.28;100846.51;1823713;78;21194;-79
2020/12/28 09:16:11;;;;;;;14.85;11.30;;;;;;;0.49;75.53;100841.91;1823994;78;21303;-80
2020/12/28 09:19:16;;;;;;;21.10;14.73;;;;;;;0.53;75.58;100841.23;1806965;78;21832;-79
2020/12/28 09:22:22;;;;;;;12.07;8.95;;;;;;;0.55;75.90;100835.26;1819653;78;21157;-78
2020/12/28 09:25:27;;;;;;;23.15;19.87;;;;;;;0.60;75.95;100833.13;1815708;78;21278;-78
2020/12/28 09:28:32;;;;;;;14.98;13.40;;;;;;;0.63;75.73;100836.49;1813600;78;21267;-79
2020/12/28 09:31:40;;;;;;;25.25;22.48;;;;;;;0.64;75.73;100824.75;1817103;78;21330;-79
2020/12/28 09:34:46;;;;;;;22.22;19.80;;;;;;;0.68;76.24;100815.52;1806487;78;21294;-79
2020/12/28 09:37:54;;;;;;;14.03;11.70;;;;;;;0.69;76.36;100809.64;1813830;78;21329;-79
2020/12/28 09:41:00;;;;;;;26.80;23.90;;;;;;;0.70;76.30;100812.71;1801418;78;21232;-79
2020/12/28 09:44:06;;;;;;;20.32;15.28;;;;;;;0.72;76.58;100802.23;1819450;78;21356;-79
2020/12/28 09:47:11;;;;;;;18.87;15.48;;;;;;;0.75;76.70;100797.11;1802945;78;21429;-79
2020/12/28 09:50:18;;;;;;;19.80;15.70;;;;;;;0.80;76.76;100792.77;1822688;78;21367;-79
2020/12/28 09:53:25;;;;;;;28.23;24.12;;;;;;;0.85;77.15;100783.89;1822896;78;21272;-78
2020/12/28 09:56:31;;;;;;;16.50;14.70;;;;;;;0.90;77.17;100791.22;1822377;78;21153;-79
2020/12/28 09:59:36;;;;;;;22.13;15.80;;;;;;;0.91;77.10;100786.20;1817307;78;21358;-79
2020/12/28 10:02:43;;;;;;;9.43;7.25;;;;;;;0.90;77.00;100783.99;1800984;78;21276;-80
2020/12/28 10:05:50;;;;;;;14.63;12.78;;;;;;;0.95;77.20;100772.42;1817731;78;21330;-80
2020/12/28 10:08:56;;;;;;;12.25;10.55;;;;;;;0.99;77.01;100771.25;1820018;78;21279;-80
2020/12/28 10:12:04;;;;;;;32.03;28.62;;;;;;;1.02;77.19;100767.47;1810431;78;21304;-79
2020/12/28 10:15:09;;;;;;;11.43;7.47;;;;;;;1.00;76.96;100773.45;1807217;78;21296;-79
2020/12/28 10:18:42;;;;;;;34.23;29.05;;;;;;;0.99;77.09;100750.19;1806802;78;21269;-79
2020/12/28 10:21:46;;;;;;;25.50;22.80;;;;;;;1.03;77.42;100751.67;1807545;78;21689;-79
2020/12/28 10:24:52;;;;;;;25.88;19.55;;;;;;;1.04;77.49;100752.08;1811107;78;21344;-80
2020/12/28 10:27:58;;;;;;;26.00;22.77;;;;;;;1.05;77.45;100749.77;1807190;78;21271;-79
2020/12/28 10:31:03;;;;;;;16.37;12.50;;;;;;;1.04;77.61;100737.27;1799772;78;21183;-79
2020/12/28 10:34:08;;;;;;;37.33;32.60;;;;;;;1.05;77.64;100737.64;1805553;77;21294;-80
2020/12/28 10:37:14;;;;;;;12.10;9.85;;;;;;;1.07;77.67;100750.99;1804629;78;21396;-79
2020/12/28 10:40:21;;;;;;;14.23;12.03;;;;;;;1.09;77.90;100747.23;1795939;78;21285;-79
2020/12/28 10:43:28;;;;;;;21.95;19.07;;;;;;;1.06;77.73;100742.05;1805644;78;21874;-79
2020/12/28 10:46:34;;;;;;;37.55;30.45;;;;;;;1.08;77.76;100737.41;1799919;78;21894;-79
2020/12/28 10:49:45;;;;;;;16.65;12.88;;;;;;;1.11;77.63;100734.51;1798642;78;21323;-80
2020/12/28 10:52:48;;;;;;;34.55;30.97;;;;;;;1.12;77.85;100737.58;1802294;78;21182;-79
2020/12/28 10:55:55;;;;;;;21.50;19.23;;;;;;;1.11;77.93;100727.78;1800012;78;21340;-79
2020/12/28 10:59:00;;;;;;;21.55;19.27;;;;;;;1.11;78.23;100729.13;1808506;78;21402;-80
2020/12/28 11:02:06;;;;;;;11.55;9.65;;;;;;;1.13;78.46;100727.66;1805195;78;21323;-79
2020/12/28 11:05:13;;;;;;;18.82;14.75;;;;;;;1.19;78.63;100729.47;1807870;78;21141;-80
2020/12/28 11:08:18;;;;;;;15.28;11.68;;;;;;;1.21;78.45;100723.47;1803197;78;21342;-80
2020/12/28 11:11:25;;;;;;;20.57;15.70;;;;;;;1.19;78.22;100720.52;1808639;78;21324;-80
2020/12/28 11:14:30;;;;;;;28.42;25.43;;;;;;;1.15;78.46;100714.96;1806865;78;21323;-80
2020/12/28 11:17:36;;;;;;;10.72;9.38;;;;;;;1.11;78.70;100704.87;1811194;78;21890;-80
2020/12/28 11:20:42;;;;;;;17.48;14.60;;;;;;;1.08;78.72;100700.17;1811274;78;21190;-80
2020/12/28 11:24:04;;;;;;;18.25;15.90;;;;;;;1.11;79.02;100704.02;1806978;78;21276;-80
2020/12/28 11:27:12;;;;;;;30.23;26.97;;;;;;;1.16;79.15;100689.25;1808974;78;21149;-80
2020/12/28 11:30:18;;;;;;;10.32;8.35;;;;;;;1.17;79.00;100704.44;1812258;78;21256;-80
2020/12/28 11:33:29;;;;;;;26.63;23.37;;;;;;;1.15;79.21;100692.92;1809535;78;21264;-80
2020/12/28 11:36:34;;;;;;;30.30;27.00;;;;;;;1.13;79.08;100696.22;1807818;78;21458;-81
2020/12/28 11:39:40;;;;;;;34.90;31.20;;;;;;;1.12;79.27;100695.81;1806942;78;21351;-81
2020/12/28 11:42:46;;;;;;;22.25;19.50;;;;;;;1.14;79.50;100695.24;1808123;78;21283;-80
2020/12/28 11:45:52;;;;;;;21.23;16.97;;;;;;;1.19;79.63;100696.27;1805573;78;21818;-81
2020/12/28 11:49:00;;;;;;;19.10;15.98;;;;;;;1.22;79.47;100687.49;1806162;78;21293;-81
2020/12/28 11:52:06;;;;;;;19.85;16.70;;;;;;;1.22;79.12;100696.03;1804059;78;21764;-79
2020/12/28 11:55:16;;;;;;;15.38;11.57;;;;;;;1.20;79.01;100684.03;1807634;78;21191;-82
2020/12/28 11:58:27;;;;;;;19.00;16.57;;;;;;;1.19;79.30;100678.27;1803506;78;21498;-80
2020/12/28 12:01:35;;;;;;;32.58;28.00;;;;;;;1.26;79.54;100675.98;1806894;78;21295;-80
2020/12/28 12:04:49;;;;;;;20.37;15.95;;;;;;;1.32;79.62;100673.34;1805690;78;22500;-81
2020/12/28 12:07:53;;;;;;;23.30;20.30;;;;;;;1.36;79.71;100662.23;1800217;78;21320;-79
2020/12/28 12:11:02;;;;;;;31.35;27.87;;;;;;;1.41;79.66;100654.72;1801180;78;21221;-80
2020/12/28 12:14:08;;;;;;;37.10;33.00;;;;;;;1.45;79.62;100662.07;1810622;78;21303;-80
2020/12/28 12:17:17;;;;;;;26.45;21.12;;;;;;;1.41;79.78;100642.58;1817725;78;21259;-79
2020/12/28 12:20:23;;;;;;;38.63;34.55;;;;;;;1.41;79.89;100637.19;1807392;78;21911;-79
2020/12/28 12:23:29;;;;;;;19.37;17.30;;;;;;;1.40;79.98;100639.97;1801297;78;21291;-80
2020/12/28 12:26:35;;;;;;;24.05;16.55;;;;;;;1.38;80.18;100634.70;1807342;78;21304;-79
2020/12/28 12:29:41;;;;;;;53.08;47.30;;;;;;;1.34;80.24;100638.59;1805015;78;21284;-78
2020/12/28 12:32:50;;;;;;;21.97;17.73;;;;;;;1.27;80.45;100634.13;1810949;78;21307;-80
2020/12/28 12:35:56;;;;;;;23.47;20.27;;;;;;;1.21;80.57;100628.30;1807320;78;21311;-79
2020/12/28 12:39:02;;;;;;;16.00;12.30;;;;;;;1.14;80.75;100648.58;1800808;78;21177;-78
2020/12/28 12:42:08;;;;;;;26.37;20.15;;;;;;;1.10;80.90;100644.37;1807603;78;21312;-79
2020/12/28 12:45:13;;;;;;;15.70;10.60;;;;;;;1.05;81.02;100655.47;1805332;78;21707;-77
2020/12/28 12:48:21;;;;;;;18.30;15.70;;;;;;;1.00;81.27;100646.36;1807120;78;21191;-78
2020/12/28 12:51:29;;;;;;;14.53;11.18;;;;;;;0.94;81.51;100641.86;1783901;78;21267;-79
2020/12/28 12:54:36;;;;;;;33.02;28.60;;;;;;;0.90;81.87;100639.03;1805101;78;21319;-79
2020/12/28 12:57:41;;;;;;;18.07;14.55;;;;;;;0.88;82.19;100643.65;1805705;78;21196;-79
2020/12/28 13:00:46;;;;;;;23.73;20.48;;;;;;;0.90;82.40;100648.46;1803758;78;21635;-80
2020/12/28 13:03:52;;;;;;;21.65;19.17;;;;;;;0.89;82.50;100653.45;1812282;78;21205;-79
2020/12/28 13:06:59;;;;;;;32.65;28.12;;;;;;;0.87;82.52;100656.25;1806048;78;21202;-79
2020/12/28 13:10:06;;;;;;;19.73;16.12;;;;;;;0.87;82.58;100656.74;1809642;78;21299;-78
2020/12/28 13:13:12;;;;;;;27.35;22.82;;;;;;;0.82;82.67;100650.81;1809500;78;21460;-79
2020/12/28 13:16:18;;;;;;;31.17;27.07;;;;;;;0.80;82.80;100641.95;1802494;78;21266;-78
2020/12/28 13:19:25;;;;;;;29.50;26.02;;;;;;;0.77;82.93;100630.93;1822457;78;21342;-79
2020/12/28 13:22:35;;;;;;;22.07;17.52;;;;;;;0.75;83.05;100622.97;1816671;78;21309;-78
2020/12/28 13:25:40;;;;;;;21.52;17.32;;;;;;;0.74;83.17;100638.72;1806210;79;21255;-78
2020/12/28 13:28:45;;;;;;;27.82;24.92;;;;;;;0.73;83.35;100641.05;1793849;80;21187;-78
2020/12/28 13:31:55;;;;;;;16.30;13.58;;;;;;;0.71;83.50;100633.57;1807514;79;21311;-79
2020/12/28 13:35:00;;;;;;;25.63;22.70;;;;;;;0.69;83.58;100626.55;1793386;78;21272;-79
2020/12/28 13:38:06;;;;;;;28.75;17.42;;;;;;;0.67;83.66;100629.84;1834297;78;21201;-78
2020/12/28 13:41:11;;;;;;;35.70;31.82;;;;;;;0.64;83.62;100632.73;1807312;79;21157;-78
2020/12/28 13:44:17;;;;;;;24.87;20.00;;;;;;;0.60;83.68;100634.77;1785469;80;21373;-78
2020/12/28 13:47:23;;;;;;;30.12;25.32;;;;;;;0.60;83.73;100636.12;1822227;78;21276;-79
2020/12/28 13:50:29;;;;;;;29.23;26.12;;;;;;;0.60;83.75;100648.23;1804084;79;21269;-79
2020/12/28 13:53:34;;;;;;;33.15;28.95;;;;;;;0.59;83.75;100641.13;1761674;80;21323;-78
2020/12/28 13:56:40;;;;;;;28.00;24.10;;;;;;;0.55;83.88;100638.27;1769254;80;21280;-78
2020/12/28 13:59:46;;;;;;;43.73;39.05;;;;;;;0.53;84.01;100631.27;1804723;79;21280;-78
2020/12/28 14:02:55;;;;;;;27.67;24.10;;;;;;;0.53;84.10;100639.34;1836426;78;21797;-79
2020/12/28 14:06:01;;;;;;;27.80;24.23;;;;;;;0.49;84.23;100644.93;1840301;78;21804;-80
2020/12/28 14:09:07;;;;;;;21.15;16.10;;;;;;;0.48;84.35;100638.31;1835195;78;21174;-80
2020/12/28 14:12:17;;;;;;;14.15;10.05;;;;;;;0.48;84.49;100646.39;1834698;78;21317;-80
2020/12/28 14:15:22;;;;;;;29.52;26.05;;;;;;;0.45;84.52;100638.02;1804585;79;21444;-80
2020/12/28 14:18:27;;;;;;;19.00;15.55;;;;;;;0.40;84.66;100640.17;1820958;78;21146;-80
2020/12/28 14:21:34;;;;;;;32.98;29.25;;;;;;;0.38;84.88;100642.11;1824822;78;21280;-79
2020/12/28 14:24:39;;;;;;;28.83;24.35;;;;;;;0.36;84.99;100638.64;1822132;78;21184;-79